logo
App data

Oozi: Earth Adventure

Oozi: Earth Adventure is a classic 2D platformer with old school gameplay - no puzzles, no punishment, just 100% pure classic platforming fun! Its most prominent features are HD visuals and beautiful hand-drawn art, but despite its visual style, it’s a good fit for all kinds of gamers!
Store | Hub | SteamDB
Developer: Awesome Games Studio Publisher: Awesome Games Studio
Genre: Casual, Indie
Languages: English, Polish, Simplified Chinese
Tags: Indie (39), Casual (35), Platformer (31), Singleplayer (17), Adventure (15), Action (15), Side Scroller (14), Controller (13), Family Friendly (13), Cartoony (13), Funny (11), 2D (10)
Category: Single-player, Steam Achievements, Full controller support, Steam Trading Cards, Steam Cloud, Steam Leaderboards
Release date: Dec 5, 2013
Price: $4.99
Score rank: 66% Userscore: 86% Old userscore: 85% Metascore: 66%
Owners: 50,000 .. 100,000
Followers: 786
Peak concurrent players yesterday: 2
Playtime total: 02:44 (average) 02:24 (median)

Steam Spy is still in beta, so expect major bugs.

Owners data:

Access restricted.

This feature is only available to users with special access rights. Sorry.

If you want to proceed, you need to register or log in first and then back Steam Spy on Patreon. Look for Indie or Pro pledge.

Don't forget to use the same email as on Steam Spy!

Audience in 2 weeks:

Access restricted.

This feature is only available to users with special access rights. Sorry.

If you want to proceed, you need to register or log in first and then back Steam Spy on Patreon. Look for Indie or Pro pledge.

Don't forget to use the same email as on Steam Spy!

Peak daily concurrent players:

CCU data courtesy of SteamDB. Used with permission.

Hourly concurrent players:

YouTube:

The views data is based on top 50 videos uploaded last week. Actual number of views might be more than the number shown.

The displayed number of videos uploaded yesterday is limited to 50, so if there were more videos uploaded, the number will still show 50.

If the game has commonly used word as its name (like "FEAR" or "Volume") its number of Youtube views might be wrong.

Games similar to this one:

# Game Release date
Price
Score rank
(Userscore / Metascore)
Owners
Players
Playtime (Median)
1 Night Blights Apr 15, 2016 $6.99100% (100%)0 .. 20,0000%00:00 (00:00)
2 Carrie's Order Up! Sep 12, 2016 $2.9999% (98%)0 .. 20,0000%00:00 (00:00)
3 Luxor Evolved Mar 1, 2012 $9.9997% (97%)50,000 .. 100,0000%00:00 (00:00)
4 Hustle Cat Mar 16, 2016 $19.9995% (96%)20,000 .. 50,0000%00:00 (00:00)
5 A Good Snowman Is Hard To Build Feb 25, 2015 $9.9992% (95%)20,000 .. 50,0000%00:00 (00:00)
6 Beat Da Beat Mar 10, 2016 $1.9992% (95%)0 .. 20,0000%00:00 (00:00)
7 Chip's Challenge 2 May 28, 2015 $4.9990% (94%)20,000 .. 50,0000%00:00 (00:00)
8 Girls Like Robots Feb 14, 2014 $6.9987% (93%)100,000 .. 200,0000%00:00 (00:00)
9 Tennis in the Face Nov 18, 2015 $4.99N/A (N/A)0 .. 20,0000%00:00 (00:00)
10 Swapperoo Dec 18, 2015 $4.99N/A (N/A)0 .. 20,0000%00:00 (00:00)
11 [the Sequence] Mar 30, 2016 $1.9987% (93%)0 .. 20,0000%00:00 (00:00)
12 12 Labours of Hercules Mar 23, 2015 $2.9987% (93%)100,000 .. 200,0000.5%01:43 (01:08)
13 Griptape Backbone May 5, 2017 Free83% (92%)0 .. 20,0002.17%00:33 (00:11)
14 Earthtongue Apr 27, 2015 $4.9983% (92%)20,000 .. 50,0000%00:00 (00:00)
15 SquareCells Dec 7, 2015 $2.9983% (92%)20,000 .. 50,0000%00:00 (00:00)
16 Grapple Mar 9, 2015 $6.9979% (91%)20,000 .. 50,0000%00:00 (00:00)
17 The Jackbox Party Pack Nov 26, 2014 $24.9979% (91%)200,000 .. 500,0001.29%01:11 (01:03)
18 Tribloos 2 Jan 30, 2014 $4.9979% (91%)100,000 .. 200,0000%00:00 (00:00)
19 Think To Die 3 Mar 27, 2017 $4.99N/A (N/A)0 .. 20,0000%00:00 (00:00)
20 Frog Climbers Oct 6, 2016 $6.99N/A (N/A)20,000 .. 50,0000%00:00 (00:00)
21 On Rusty Trails Jun 13, 2016 $2.5976% (90%/77%)50,000 .. 100,0000%00:00 (00:00)
22 Recursion Deluxe Feb 12, 2016 $4.9973% (89%)0 .. 20,0000%00:00 (00:00)
23 The Reject Demon: Toko Chapter 0 — Prelude May 8, 2015 $4.9973% (89%)0 .. 20,0000%00:00 (00:00)
24 12 Labours of Hercules IV: Mother Nature (Platinum Edition) Dec 25, 2015 $2.9973% (89%)20,000 .. 50,0001.67%00:47 (00:21)
25 Koala Kids Jun 22, 2015 $1.9973% (89%)20,000 .. 50,0000%00:00 (00:00)
26 12 Labours of Hercules V: Kids of Hellas (Platinum Edition) Jun 17, 2016 $2.9973% (89%)20,000 .. 50,0002.27%02:32 (01:41)
27 Without Within 2 Nov 9, 2015 $4.9973% (89%)0 .. 20,0004.55%08:30 (02:50)
28 This Starry Midnight We Make Jun 1, 2015 $9.99N/A (N/A)0 .. 20,0000%00:00 (00:00)
29 Forgotten, Not Lost - A Kinetic Novel Apr 1, 2016 $1.9973% (89%)50,000 .. 100,0000.4%02:02 (00:40)
30 Clock Simulator Jul 20, 2016 $0.9973% (89%)20,000 .. 50,0001.72%00:32 (00:10)
31 Thrillville: Off the Rails Oct 9, 2007 $9.9967% (87%/70%)20,000 .. 50,0002.38%01:10 (00:23)
32 Vampires: Guide Them to Safety! Oct 22, 2014 $4.99N/A (N/A)0 .. 20,0000%00:00 (00:00)
33 Loot Hound Nov 17, 2015 $2.99N/A (N/A)0 .. 20,0003.03%03:00 (01:00)
34 Army of Pixels Oct 29, 2015 $4.99N/A (N/A)0 .. 20,0000%00:00 (00:00)
35 Bob Was Hungry Aug 19, 2015 $0.9967% (87%)50,000 .. 100,0001.02%01:11 (00:23)
36 Asphyxia Aug 4, 2015 $5.9964% (86%)20,000 .. 50,0000%00:00 (00:00)
37 Alpha Runner Sep 2, 2015 $0.9964% (86%)100,000 .. 200,0000.43%331:56 (110:38)
38 In Between Aug 21, 2015 $8.9964% (86%/68%)50,000 .. 100,0000%00:00 (00:00)
39 Cursed Sight Aug 3, 2015 $5.9964% (86%)0 .. 20,00020%03:53 (04:31)
40 Sophie's Curse Mar 16, 2016 $0.9964% (86%)50,000 .. 100,0000%00:00 (00:00)
41 Anode Oct 5, 2015 $3.99N/A (N/A)20,000 .. 50,0000%00:00 (00:00)
42 Sentinel 4: Dark Star Aug 13, 2015 $6.99N/A (N/A)0 .. 20,0000%00:00 (00:00)
43 Darkarta: A Broken Heart's Quest Collector's Edition Mar 8, 2017 $9.9962% (85%)20,000 .. 50,0000%00:00 (00:00)
44 Psycho Starship Rampage Sep 28, 2015 $9.9962% (85%)0 .. 20,0000%00:00 (00:00)
45 Magma Tsunami Jun 1, 2016 $0.99N/A (N/A)100,000 .. 200,0000%00:00 (00:00)
46 Governor of Poker 2 - Premium Edition Oct 11, 2010 $14.9959% (84%)20,000 .. 50,0000%00:00 (00:00)
47 Job the Leprechaun Jul 31, 2015 $2.99N/A (N/A)20,000 .. 50,0000.76%01:35 (00:31)
48 BAD END Nov 25, 2015 $1.9959% (84%)0 .. 20,0000%00:00 (00:00)
49 Dead Man's Draw Feb 6, 2014 $6.9959% (84%)20,000 .. 50,0000%00:00 (00:00)
50 RePete Mar 9, 2016 $1.99N/A (N/A)0 .. 20,0000%00:00 (00:00)
51 Cute Things Dying Violently Sep 2, 2015 $2.99N/A (N/A)0 .. 20,0000%00:00 (00:00)
52 Gridworld Dec 24, 2015 $0.9956% (83%)0 .. 20,0000%00:00 (00:00)
53 Collisions Jul 28, 2015 $3.9956% (83%)50,000 .. 100,0000%00:00 (00:00)
54 Cyto Jul 10, 2014 $3.9956% (83%)20,000 .. 50,0000%00:00 (00:00)
55 Steam and Metal Feb 9, 2015 $4.9954% (82%)0 .. 20,0000%00:00 (00:00)
56 Stay Alight Mar 2, 2015 $3.9952% (81%)50,000 .. 100,0000%00:00 (00:00)
57 Dungeon Painter Studio Feb 26, 2017 $14.9952% (81%)20,000 .. 50,00010.71%02:38 (02:38)
58 Optika Aug 26, 2016 $4.9950% (80%)20,000 .. 50,0000%00:00 (00:00)
59 Space Drifters 2D Mar 28, 2016 $0.99N/A (N/A)20,000 .. 50,0000%00:00 (00:00)
60 Egg Returns Home May 5, 2015 $0.9950% (80%)20,000 .. 50,0000%00:00 (00:00)
61 Star Sky - ブルームーン Oct 23, 2015 $3.9947% (79%)0 .. 20,0000%00:00 (00:00)
62 The Last NightMary - A Lenda do Cabeça de Cuia Nov 2, 2015 $3.9947% (79%)50,000 .. 100,0000%00:00 (00:00)
63 GamersGoMakers Aug 8, 2014 $9.9947% (79%)0 .. 20,0000%00:00 (00:00)
64 Terraform May 8, 2015 $2.99N/A (N/A)0 .. 20,0000%00:00 (00:00)
65 Archimedes Oct 6, 2016 $2.9947% (79%)100,000 .. 200,0000%00:00 (00:00)
66 Air Missions: HIND Jun 14, 2017 $7.6445% (78%)0 .. 20,0000%00:00 (00:00)
67 The Survey Oct 27, 2016 $4.9945% (78%)0 .. 20,0005%00:02 (00:00)
68 Farm for your Life Jun 16, 2014 $9.9945% (78%)50,000 .. 100,0001.82%00:27 (00:09)
69 Particulars Nov 19, 2014 $5.9945% (78%/74%)20,000 .. 50,0000%00:00 (00:00)
70 SinaRun Oct 26, 2015 $2.9943% (77%)20,000 .. 50,0000%00:00 (00:00)
71 Pixel Puzzles 2: Birds Feb 20, 2015 $9.9943% (77%)200,000 .. 500,0000.43%00:59 (00:39)
72 Paranormal State: Poison Spring Apr 9, 2014 $9.9943% (77%)50,000 .. 100,0000%00:00 (00:00)
73 Beeftacular Aug 26, 2016 $2.9943% (77%)0 .. 20,0000%00:00 (00:00)
74 Where are my Internets? Dec 16, 2016 $2.99N/A (N/A)20,000 .. 50,0000%00:00 (00:00)
75 hackmud Sep 22, 2016 $19.9941% (76%)20,000 .. 50,0006.98%14:20 (14:20)
76 ConflictCraft Dec 8, 2016 $2.99N/A (N/A)20,000 .. 50,0000%00:00 (00:00)
77 Rescue Team 5 Nov 18, 2015 $3.99N/A (N/A)20,000 .. 50,0000%00:00 (00:00)
78 The Deletion Jul 30, 2015 $1.9941% (76%)20,000 .. 50,0000%00:00 (00:00)
79 Fate Tectonics Sep 9, 2015 $9.9939% (75%)0 .. 20,0001.39%00:19 (00:06)
80 Neon Prism Nov 18, 2016 $4.9939% (75%)50,000 .. 100,0001.13%00:58 (01:17)
81 Kombine Oct 14, 2016 $0.9939% (75%)20,000 .. 50,0000%00:00 (00:00)
82 MOAI 2: Path to Another World Jul 16, 2015 $7.99N/A (N/A)0 .. 20,00011.11%04:11 (01:23)
83 Idle Evolution Apr 3, 2017 $4.9936% (73%)0 .. 20,0000%00:00 (00:00)
84 Laserlife Sep 22, 2015 $9.9936% (73%)0 .. 20,0000%00:00 (00:00)
85 GO AWAY, THERE'S KUMIS OVER THERE! Oct 28, 2016 $0.9936% (73%)50,000 .. 100,0000%00:00 (00:00)
86 Turbo Pug 3D Sep 20, 2016 $1.9934% (72%)200,000 .. 500,0000.1%00:57 (00:19)
87 Axel & Pixel Oct 6, 2010 $4.99N/A (N/A)20,000 .. 50,0000%00:00 (00:00)
88 Zipple World Jan 19, 2016 $4.99N/A (N/A)0 .. 20,0000%00:00 (00:00)
89 Wanda - A Beautiful Apocalypse Jun 3, 2016 $1.99N/A (N/A)100,000 .. 200,0000%00:00 (00:00)
90 Western FPS Mar 13, 2017 $0.9929% (69%)200,000 .. 500,0000%00:00 (00:00)
91 Sinister City Oct 20, 2014 $0.9928% (68%)100,000 .. 200,0000%00:00 (00:00)
92 Love in the Glen Jun 8, 2016 $5.99N/A (N/A)20,000 .. 50,0002.17%03:48 (02:31)
93 Pester Aug 21, 2015 $0.9928% (68%)100,000 .. 200,0000.26%01:10 (00:23)
94 Mind Games Mar 4, 2016 $2.9926% (67%)0 .. 20,0000%00:00 (00:00)
95 One Last Chance Apr 7, 2016 $3.99N/A (N/A)20,000 .. 50,0002.33%04:15 (02:50)
96 Totally Unbalanced Jul 29, 2016 $2.99N/A (N/A)0 .. 20,0000%00:00 (00:00)
97 Caravanserail Mar 10, 2016 $2.99N/A (N/A)0 .. 20,0000%00:00 (00:00)
98 Herding Dog Jan 15, 2016 $2.99N/A (N/A)0 .. 20,0000%00:00 (00:00)
99 1931: Scheherazade at the Library of Pergamum Mar 26, 2015 $3.7425% (66%)20,000 .. 50,0000%00:00 (00:00)
100 Broken Dreams Feb 19, 2016 $0.4925% (66%)200,000 .. 500,0000%00:00 (00:00)
101 Lift It Jan 20, 2017 $4.99N/A (N/A)50,000 .. 100,0000.56%03:41 (01:13)
102 Highborn Feb 19, 2013 $1.9922% (64%)0 .. 20,0000%00:00 (00:00)
103 Power of Love Jul 21, 2015 $0.9922% (64%)20,000 .. 50,0000%00:00 (00:00)
104 XCavalypse Jun 6, 2016 $5.99N/A (N/A)0 .. 20,0000%00:00 (00:00)
105 Marble Duel Nov 12, 2015 $4.9921% (63%)50,000 .. 100,0000%00:00 (00:00)
106 Goodnight Butcher Dec 18, 2015 $1.99N/A (N/A)20,000 .. 50,0000%00:00 (00:00)
107 Winexy Jan 13, 2017 $0.9919% (61%)50,000 .. 100,0000%00:00 (00:00)
108 Won't You Be My Laser? Sep 2, 2016 $0.99N/A (N/A)0 .. 20,0000%00:00 (00:00)
109 Football Blitz Jan 4, 2017 $2.99N/A (N/A)0 .. 20,0000%00:00 (00:00)
110 Star Chronicles: Delta Quadrant Jul 7, 2015 $0.9917% (59%)200,000 .. 500,0000%00:00 (00:00)
111 FBI MANIA Jan 31, 2017 $0.9916% (58%)100,000 .. 200,0001.32%01:31 (01:00)
112 Wildlife Park 2 - Dino World Jul 17, 2014 $3.9915% (57%)20,000 .. 50,0000%00:00 (00:00)
113 Color Syndrome Aug 1, 2016 $0.99N/A (N/A)20,000 .. 50,0000.54%00:08 (00:02)
114 Bloop Reloaded Feb 6, 2015 $9.9914% (56%)100,000 .. 200,0000.23%00:04 (00:01)
115 Way of Gold and Steel Aug 17, 2015 $8.9914% (56%)20,000 .. 50,0000%00:00 (00:00)
116 Bunny & Piggy Nov 30, 2016 $0.9913% (55%)20,000 .. 50,0000%00:00 (00:00)
117 Drizzlepath Mar 12, 2015 $2.9912% (54%)0 .. 20,0000%00:00 (00:00)
118 Dance Magic Feb 15, 2016 $9.99N/A (N/A)0 .. 20,0003.57%00:22 (00:07)
119 Backgammon Blitz Nov 12, 2015 $3.9912% (54%)0 .. 20,0004.35%00:38 (00:12)
120 Reptilian Rebellion Aug 7, 2016 $0.49N/A (N/A)20,000 .. 50,0000%00:00 (00:00)
121 Sky to Fly: Soulless Leviathan Jul 22, 2016 $3.99N/A (N/A)0 .. 20,0000%00:00 (00:00)
122 Quantum Rush Champions Dec 4, 2014 $9.9910% (51%)20,000 .. 50,0000%00:00 (00:00)
123 Rage Runner May 16, 2014 $4.99N/A (N/A)0 .. 20,0001.32%05:13 (01:44)
124 Autumn May 14, 2016 $2.9910% (50%)50,000 .. 100,0000%00:00 (00:00)
125 Ninja Stealth 2 Jan 30, 2017 $0.999% (48%)20,000 .. 50,0000.88%02:02 (00:40)
126 King's Guard TD Jun 8, 2016 $2.999% (48%)100,000 .. 200,0000.56%01:01 (00:40)
127 Astro Emporia Feb 2, 2015 $0.998% (47%)20,000 .. 50,0000%00:00 (00:00)
128 Racecraft Mar 4, 2016 Free8% (47%)0 .. 20,0001.61%00:07 (00:02)
129 Melting Hearts: Our Love Will Grow 2 Apr 29, 2016 N/A7% (45%)20,000 .. 50,0000%00:00 (00:00)
130 iREC Jan 16, 2017 Free6% (43%)50,000 .. 100,0000%00:00 (00:00)
131 European Ship Simulator Nov 4, 2016 $19.994% (38%)50,000 .. 100,0002.63%01:52 (00:37)
132 Streets of Chaos Jan 28, 2015 N/A4% (36%)100,000 .. 200,0000%00:00 (00:00)
133 Hide and Secret Treasure of the Ages Jun 17, 2016 $2.99N/A (N/A)0 .. 20,0000%00:00 (00:00)
134 Space Hotel Jan 4, 2017 $1.993% (34%)0 .. 20,0000%00:00 (00:00)
135 Industry Transporters Aug 31, 2015 $9.99N/A (N/A)0 .. 20,0000%00:00 (00:00)
136 Burst Mar 14, 2016 $1.99N/A (N/A)100,000 .. 200,0000%00:00 (00:00)
137 Robot vs Birds Zombies Jul 23, 2015 $0.633% (31%)0 .. 20,0000%00:00 (00:00)
138 Labyrinth Simulator Sep 21, 2015 $4.99N/A (N/A)0 .. 20,0000%00:00 (00:00)
139 Hyposphere May 5, 2016 $2.99N/A (N/A)200,000 .. 500,0000%00:00 (00:00)
140 Cyber Team Manager Jan 18, 2016 $4.991% (20%)0 .. 20,0000%00:00 (00:00)
141 One way to exit Mar 12, 2016 $1.99N/A (N/A)200,000 .. 500,0000%00:00 (00:00)

Tags over time:

Access restricted.

This feature is only available to users with special access rights. Sorry.

If you want to proceed, you need to register or log in first and then back Steam Spy on Patreon. Look for Indie or Pro pledge.

Don't forget to use the same email as on Steam Spy!

Owners of this game also own:

Access restricted.

This feature is only available to users with special access rights. Sorry.

If you want to proceed, you need to register or log in first and then back Steam Spy on Patreon. Look for Indie or Pro pledge.

Don't forget to use the same email as on Steam Spy!

Playtime distribution:

Access restricted.

This feature is only available to users with special access rights. Sorry.

If you want to proceed, you need to register or log in first and then back Steam Spy on Patreon. Look for Indie or Pro pledge.

Don't forget to use the same email as on Steam Spy!

Playtime (2 weeks):

Access restricted.

This feature is only available to users with special access rights. Sorry.

If you want to proceed, you need to register or log in first and then back Steam Spy on Patreon. Look for Indie or Pro pledge.

Don't forget to use the same email as on Steam Spy!

User reviews:

Login required.

Please register or log in to see this information.